Πλησιέστερες Αναφορές METAR

 

LGTS - Thessaloniki/Makedonia-Elev 7m
Απόσταση από σταθμό: Ν 13km
Ενημερώθηκε: 26/01/2022 01:20
Αίθριος
Αίθριος
 Ανεμοι από Β
Ανεμος: Β 19 km/h
Θερμοκρασία: 0°C
Δείκτης Ψύχρας: -5°C
Σημείο Δρόσου: -12°C
Υγρασία: 40%
Βαρόμετρο: 1027 hPa
Περίληψη: Αίθριος
Ορατότητα: πάνω από 10 km
2022/01/25 23:20 LGTS 252320Z 36010KT CAVOK M00/M12 Q1027 NOSIG
LGAV - Athens/Elef. Venizelos-Elev 94m
Απόσταση από σταθμό: ΝΝΑ 312km
Ενημερώθηκε: 26/01/2022 01:20
Σχεδόν νεφελώδης
Σχεδόν νεφελώδης
 Ανεμοι από Δ
Ανεμος: Δ 7 km/h
Θερμοκρασία: 2°C
Δείκτης Ψύχρας: 0°C
Σημείο Δρόσου: -6°C
Υγρασία: 56%
Βαρόμετρο: 1024 hPa
Νέφωση: Σχεδόν νεφελώδης
Ορατότητα: 10 km
Λεπτομέρειες Νεφών: Διάσπαρτα Νέφη 762 m
Σχεδόν νεφελώδης 1372 m
2022/01/25 23:20 LGAV 252320Z 28004KT 250V310 9999 FEW025 BKN045 02/M06 Q1024 NOSIG
 
LGAL - Alexandroupolis-Elev 3m
Απόσταση από σταθμό: Α 251km
Ενημερώθηκε: 26/01/2022 01:20
Αίθριος
Αίθριος
 Ανεμοι από άπνοια
Ανεμος: άπνοια
Θερμοκρασία: -3°C
Σημείο Δρόσου: -10°C
Υγρασία: 59%
Βαρόμετρο: 1026 hPa
Περίληψη: Αίθριος
Ορατότητα: πάνω από 10 km
2022/01/25 23:20 LGAL 252320Z 00000KT CAVOK M03/M10 Q1026
LGKV - Kavala/Crysoupolis-Elev 5m
Απόσταση από σταθμό: ΑΒΑ 144km
Ενημερώθηκε: 25/01/2022 20:20
ΜΗ Ενημερωμένο METAR!
Διάσπαρτα Νέφη
Διάσπαρτα Νέφη
 Ανεμοι από άπνοια
Ανεμος: άπνοια
Θερμοκρασία: -2°C
Σημείο Δρόσου: -8°C
Υγρασία: 64%
Βαρόμετρο: 1026 hPa
Νέφωση: Διάσπαρτα Νέφη
Ορατότητα: 10 km
Λεπτομέρειες Νεφών: Διάσπαρτα Νέφη 610 m
2022/01/25 18:20 LGKV 251820Z 00000KT 9999 FEW020 M02/M08 Q1026
 
LGSK - Skiathos Island-Elev 15m
Απόσταση από σταθμό: ΝΝΑ 168km
Ενημερώθηκε: 25/01/2022 16:50
ΜΗ Ενημερωμένο METAR!
Μερικώς νεφελώδης
Μερικώς νεφελώδης
 Ανεμοι από ΒΒΔ
Ανεμος: ΒΒΔ 11 km/h
Θερμοκρασία: 4°C
Δείκτης Ψύχρας: 1°C
Σημείο Δρόσου: -3°C
Υγρασία: 61%
Βαρόμετρο: 1025 hPa
Νέφωση: Μερικώς νεφελώδης
Ορατότητα: 10 km
Λεπτομέρειες Νεφών: Μερικώς νεφελώδης 549 m
2022/01/25 14:50 LGSK 251450Z 34006KT 9999 SCT018 04/M03 Q1025
LGLM - Limnos Island-Elev 5m
Απόσταση από σταθμό: ΑΝΑ 210km
Ενημερώθηκε: 26/01/2022 00:50
Μερικώς νεφελώδης
Μερικώς νεφελώδης
 Ανεμοι από ΑΒΑ
Ανεμος: ΑΒΑ 15 km/h
Θερμοκρασία: 3°C
Δείκτης Ψύχρας: -1°C
Σημείο Δρόσου: -9°C
Υγρασία: 41%
Βαρόμετρο: 1025 hPa
Νέφωση: Μερικώς νεφελώδης
Ορατότητα: 10 km
Λεπτομέρειες Νεφών: Μερικώς νεφελώδης 610 m
2022/01/25 22:50 LGLM 252250Z 06008KT 9999 SCT020 03/M09 Q1025
 
LGMT - Mitilini Island-Elev 17m
Απόσταση από σταθμό: ΑΝΑ 358km
Ενημερώθηκε: 25/01/2022 22:50
ΜΗ Ενημερωμένο METAR!
Μερικώς νεφελώδης
Μερικώς νεφελώδης
 Ανεμοι από Β
Ανεμος: Β 26 km/h
Θερμοκρασία: 3°C
Δείκτης Ψύχρας: -2°C
Σημείο Δρόσου: -4°C
Υγρασία: 60%
Βαρόμετρο: 1023 hPa
Νέφωση: Μερικώς νεφελώδης
Ορατότητα: 10 km
Λεπτομέρειες Νεφών: Μερικώς νεφελώδης 762 m
2022/01/25 20:50 LGMT 252050Z 36014KT 9999 SCT025 03/M04 Q1023
LGSY - Skiros Island-Elev 15m
Απόσταση από σταθμό: ΝΑ 227km
Ενημερώθηκε: 25/01/2022 19:50
ΜΗ Ενημερωμένο METAR!
Σχεδόν νεφελώδης
Σχεδόν νεφελώδης
 Ανεμοι από Β
Ανεμος: Β 26 km/h, Ριπή: 44 km/h
Θερμοκρασία: 5°C
Δείκτης Ψύχρας: 1°C
Σημείο Δρόσου: -6°C
Υγρασία: 45%
Βαρόμετρο: 1024 hPa
Νέφωση: Σχεδόν νεφελώδης
Ορατότητα: 10 km
Λεπτομέρειες Νεφών: Μερικώς νεφελώδης 457 m
Σχεδόν νεφελώδης 610 m
2022/01/25 17:50 LGSY 251750Z 36014G24KT 9999 SCT015 BKN020 05/M06 Q1024 WHT
 
LGKZ - Kozani-Elev 628m
Απόσταση από σταθμό: ΔΝΔ 102km
Ενημερώθηκε: 26/01/2022 01:20

 Ανεμοι από ΒΔ
Ανεμος: ΒΔ 9 km/h
Θερμοκρασία: -6°C
Δείκτης Ψύχρας: -11°C
Σημείο Δρόσου: -20°C
Υγρασία: 32%
Βαρόμετρο: 1024 hPa
2022/01/25 23:20 LGKZ 252320Z AUTO 31005KT 260V080 //// // ////// M06/M20 Q1024 RE//
LGIO - Ioannina-Elev 476m
Απόσταση από σταθμό: ΔΝΔ 209km
Ενημερώθηκε: 26/01/2022 01:20

 Ανεμοι από μεταβλητός
Ανεμος: μεταβλητός 4 km/h
Θερμοκρασία: -6°C
Σημείο Δρόσου: -13°C
Υγρασία: 58%
Βαρόμετρο: 1024 hPa
2022/01/25 23:20 LGIO 252320Z AUTO VRB02KT //// // ////// M06/M13 Q1024 RE//
 
LGZA - Zakinthos-Elev 3m
Απόσταση από σταθμό: ΝΝΔ 367km
Ενημερώθηκε: 25/01/2022 19:50
ΜΗ Ενημερωμένο METAR!
Αίθριος
Αίθριος
 Ανεμοι από ΒΔ
Ανεμος: ΒΔ 7 km/h
Θερμοκρασία: 6°C
Δείκτης Ψύχρας: 4°C
Σημείο Δρόσου: -3°C
Υγρασία: 53%
Βαρόμετρο: 1024 hPa
Περίληψη: Αίθριος
Ορατότητα: πάνω από 10 km
2022/01/25 17:50 LGZA 251750Z 32004KT CAVOK 06/M03 Q1024
LGKR - Corfu Island-Elev 2m
Απόσταση από σταθμό: ΔΝΔ 282km
Ενημερώθηκε: 25/01/2022 22:50
ΜΗ Ενημερωμένο METAR!
Αίθριος
Αίθριος
 Ανεμοι από άπνοια
Ανεμος: άπνοια
Θερμοκρασία: 2°C
Σημείο Δρόσου: -9°C
Υγρασία: 44%
Βαρόμετρο: 1025 hPa
Περίληψη: Αίθριος
Ορατότητα: πάνω από 10 km
2022/01/25 20:50 LGKR 252050Z 00000KT CAVOK 02/M09 Q1025 NOSIG
 
LGSO - Syros Island-Elev 72m
Απόσταση από σταθμό: ΝΝΑ 397km
Ενημερώθηκε: 25/01/2022 20:20
ΜΗ Ενημερωμένο METAR!

 
2022/01/25 18:20 LGSO 251820Z AUTO 330//KT //// -RA ////// 05/M04 Q//// RE//
LGMK - Mikonos Island-Elev 123m
Απόσταση από σταθμό: ΝΝΑ 412km
Ενημερώθηκε: 25/01/2022 19:50
ΜΗ Ενημερωμένο METAR!
Μερικώς νεφελώδης
Μερικώς νεφελώδης
 Ανεμοι από Β
Ανεμος: Β 41 km/h, Ριπή: 61 km/h
Θερμοκρασία: 3°C
Δείκτης Ψύχρας: -4°C
Σημείο Δρόσου: -2°C
Υγρασία: 70%
Βαρόμετρο: 1020 hPa
Νέφωση: Μερικώς νεφελώδης
Ορατότητα: 10 km
Λεπτομέρειες Νεφών: Μερικώς νεφελώδης 366 m
2022/01/25 17:50 LGMK 251750Z 35022G33KT 9999 SCT012 03/M02 Q1020
 
LGSR - Santorini Island-Elev 40m
Απόσταση από σταθμό: ΝΝΑ 520km
Ενημερώθηκε: 25/01/2022 22:20
ΜΗ Ενημερωμένο METAR!
Μερικώς νεφελώδης
Μερικώς νεφελώδης
 Ανεμοι από Β
Ανεμος: Β 39 km/h
Θερμοκρασία: 5°C
Δείκτης Ψύχρας: -1°C
Σημείο Δρόσου: 0°C
Υγρασία: 70%
Βαρόμετρο: 1020 hPa
Νέφωση: Μερικώς νεφελώδης
Ορατότητα: 10 km
Λεπτομέρειες Νεφών: Μερικώς νεφελώδης 762 m
2022/01/25 20:20 LGSR 252020Z 35021KT 9999 SCT025 05/M00 Q1020 REFZRA
LGKL - Kalamata-Elev 8m
Απόσταση από σταθμό: Ν 405km
Ενημερώθηκε: 26/01/2022 01:20

 Ανεμοι από ΒΒΔ
Ανεμος: ΒΒΔ 7 km/h
Θερμοκρασία: -1°C
Δείκτης Ψύχρας: -4°C
Σημείο Δρόσου: -6°C
Υγρασία: 69%
Βαρόμετρο: 1025 hPa
2022/01/25 23:20 LGKL 252320Z AUTO 33004KT 300V360 //// // ////// M01/M06 Q1025 RE//
 
LGIR - Iraklion/Crete-Elev 5m
Απόσταση από σταθμό: ΝΝΑ 622km
Ενημερώθηκε: 26/01/2022 01:20
Σχεδόν νεφελώδης
Σχεδόν νεφελώδης
 Ανεμοι από Δ
Ανεμος: Δ 17 km/h
Θερμοκρασία: 4°C
Δείκτης Ψύχρας: 0°C
Σημείο Δρόσου: 2°C
Υγρασία: 87%
Βαρόμετρο: 1020 hPa
Νέφωση: Σχεδόν νεφελώδης
Ορατότητα: 10 km
Λεπτομέρειες Νεφών: Διάσπαρτα Νέφη 305 m
Διάσπαρτα Νέφη 488 m
Σχεδόν νεφελώδης 610 m
Σχεδόν νεφελώδης 2134 m
2022/01/25 23:20 LGIR 252320Z 28009KT 9999 FEW010 FEW016TCU BKN020 BKN070 04/02 Q1020 NOSIG
LGRP - Rhodes-Elev 5m
Απόσταση από σταθμό: ΝΑ 649km
Ενημερώθηκε: 26/01/2022 01:20
Μερικώς νεφελώδης
Μερικώς νεφελώδης
 Ανεμοι από ΒΔ
Ανεμος: ΒΔ 24 km/h
Θερμοκρασία: 6°C
Δείκτης Ψύχρας: 2°C
Σημείο Δρόσου: -1°C
Υγρασία: 61%
Βαρόμετρο: 1015 hPa
Νέφωση: Μερικώς νεφελώδης
Ορατότητα: 10 km
Λεπτομέρειες Νεφών: Διάσπαρτα Νέφη 457 m
Μερικώς νεφελώδης 610 m
2022/01/25 23:20 LGRP 252320Z 31013KT 9999 FEW015 SCT020 06/M01 Q1015 NOSIG
 
LWOH - Ohrid/FYROM-Elev 761m
Απόσταση από σταθμό: ΔΒΔ 188km
Ενημερώθηκε: 25/01/2022 22:00
ΜΗ Ενημερωμένο METAR!
Αίθριος
Αίθριος
 Ανεμοι από άπνοια
Ανεμος: άπνοια
Θερμοκρασία: -10°C
Σημείο Δρόσου: -14°C
Υγρασία: 73%
Βαρόμετρο: 1025 hPa
Περίληψη: Αίθριος
Ορατότητα: πάνω από 10 km
2022/01/25 20:00 LWOH 252000Z 00000KT CAVOK M10/M14 Q1025
LBSF - Sofia/Bulgaria-Elev 595m
Απόσταση από σταθμό: Β 227km
Ενημερώθηκε: 26/01/2022 01:30
Σχεδόν νεφελώδης
Σχεδόν νεφελώδης
 Ανεμοι από μεταβλητός
Ανεμος: μεταβλητός 4 km/h
Θερμοκρασία: -12°C
Σημείο Δρόσου: -14°C
Υγρασία: 85%
Βαρόμετρο: 1026 hPa
Νέφωση: Σχεδόν νεφελώδης
Ορατότητα: 8 km
Λεπτομέρειες Νεφών: Σχεδόν νεφελώδης 2164 m
2022/01/25 23:30 LBSF 252330Z VRB02KT 8000 BKN071 M12/M14 Q1026 NOSIG